REU973 FMCZ-HKJK
Flight info
| Callsign | REU973 |
|---|---|
| Flight time | 2h 5m |
| Altitude | 38000 |
| Route | KINAN UT913 GABSO GABSO3A |
| Aircraft | B77W/H-SDE1E2E3FGHIJ2J3J4J5M1RWXY/LB1D1 |
Departure
| Time | 2026-04-26 14:11 |
|---|---|
| Airport | Dzaoudzi Pamandzi International Airport (FMCZ) |
Arrival
| Time | 2026-04-26 16:16 |
|---|---|
| Airport | Jomo Kenyatta International Airport (HKJK) |
| Time | Latitude | Longitude | Altitude | Speed | Heading |
|---|---|---|---|---|---|
| 2026-04-26 13:51 | -12.80346 | 45.28212 | 51 ft | 0 kts | 30° |
| 2026-04-26 14:00 | -12.80391 | 45.28176 | 50 ft | 4 kts | 69° |
| 2026-04-26 14:00 | -12.80393 | 45.28156 | 44 ft | 4 kts | 105° |
| 2026-04-26 14:00 | -12.80388 | 45.28138 | 45 ft | 4 kts | 102° |
| 2026-04-26 14:01 | -12.80384 | 45.28102 | 44 ft | 4 kts | 78° |
| 2026-04-26 14:01 | -12.80393 | 45.28081 | 46 ft | 4 kts | 60° |
| 2026-04-26 14:01 | -12.80406 | 45.28057 | 46 ft | 4 kts | 60° |
| 2026-04-26 14:01 | -12.80420 | 45.28034 | 46 ft | 4 kts | 60° |
| 2026-04-26 14:02 | -12.80434 | 45.28010 | 44 ft | 4 kts | 60° |
| 2026-04-26 14:02 | -12.80447 | 45.27987 | 44 ft | 4 kts | 64° |
| 2026-04-26 14:02 | -12.80455 | 45.27962 | 43 ft | 4 kts | 92° |
| 2026-04-26 14:02 | -12.80448 | 45.27937 | 43 ft | 4 kts | 127° |
| 2026-04-26 14:03 | -12.80429 | 45.27918 | 45 ft | 4 kts | 147° |
| 2026-04-26 14:03 | -12.80406 | 45.27905 | 45 ft | 4 kts | 150° |
| 2026-04-26 14:03 | -12.80391 | 45.27896 | 43 ft | 4 kts | 150° |
| 2026-04-26 14:03 | -12.80359 | 45.27877 | 43 ft | 4 kts | 150° |
| 2026-04-26 14:04 | -12.80344 | 45.27868 | 44 ft | 4 kts | 150° |
| 2026-04-26 14:04 | -12.80320 | 45.27854 | 43 ft | 4 kts | 150° |
| 2026-04-26 14:04 | -12.80297 | 45.27840 | 44 ft | 4 kts | 150° |
| 2026-04-26 14:04 | -12.80273 | 45.27826 | 43 ft | 4 kts | 150° |
| 2026-04-26 14:05 | -12.80250 | 45.27813 | 42 ft | 4 kts | 150° |
| 2026-04-26 14:05 | -12.80239 | 45.27806 | 42 ft | 0 kts | 150° |
| 2026-04-26 14:10 | -12.80250 | 45.27813 | 49 ft | 11 kts | 150° |
| 2026-04-26 14:10 | -12.80528 | 45.27977 | 49 ft | 91 kts | 150° |
| 2026-04-26 14:10 | -12.81330 | 45.28450 | 95 ft | 168 kts | 150° |
| 2026-04-26 14:11 | -12.83469 | 45.29751 | 1772 ft | 182 kts | 148° |
| 2026-04-26 14:11 | -12.84611 | 45.30444 | 2328 ft | 204 kts | 149° |
| 2026-04-26 14:11 | -12.85935 | 45.31245 | 2625 ft | 236 kts | 148° |
| 2026-04-26 14:12 | -12.87381 | 45.32119 | 3323 ft | 247 kts | 148° |
| 2026-04-26 14:12 | -12.88891 | 45.33033 | 4134 ft | 257 kts | 148° |
| 2026-04-26 14:12 | -12.90451 | 45.33978 | 5022 ft | 263 kts | 148° |
| 2026-04-26 14:12 | -12.92044 | 45.34941 | 5972 ft | 266 kts | 149° |
| 2026-04-26 14:13 | -12.95724 | 45.35329 | 7536 ft | 282 kts | 199° |
| 2026-04-26 14:13 | -12.97389 | 45.34260 | 8510 ft | 284 kts | 218° |
| 2026-04-26 14:13 | -12.98878 | 45.32908 | 9442 ft | 288 kts | 220° |
| 2026-04-26 14:14 | -13.00369 | 45.31525 | 10255 ft | 293 kts | 220° |
| 2026-04-26 14:14 | -13.01929 | 45.30079 | 10734 ft | 315 kts | 221° |
| 2026-04-26 14:14 | -13.03634 | 45.28499 | 10953 ft | 345 kts | 221° |
| 2026-04-26 14:14 | -13.05470 | 45.26805 | 11474 ft | 361 kts | 221° |
| 2026-04-26 14:15 | -13.07206 | 45.24915 | 12211 ft | 370 kts | 232° |
| 2026-04-26 14:15 | -13.08518 | 45.22630 | 13253 ft | 374 kts | 244° |
| 2026-04-26 14:15 | -13.09372 | 45.20094 | 14239 ft | 380 kts | 255° |
| 2026-04-26 14:15 | -13.09757 | 45.17420 | 15008 ft | 389 kts | 266° |
| 2026-04-26 14:16 | -13.09654 | 45.14619 | 15770 ft | 398 kts | 277° |
| 2026-04-26 14:16 | -13.09043 | 45.11816 | 16503 ft | 407 kts | 288° |
| 2026-04-26 14:16 | -13.07956 | 45.09125 | 17412 ft | 410 kts | 296° |
| 2026-04-26 14:16 | -13.06539 | 45.06569 | 18223 ft | 416 kts | 303° |
| 2026-04-26 14:17 | -13.04833 | 45.04145 | 18904 ft | 421 kts | 310° |
| 2026-04-26 14:17 | -13.02909 | 45.01869 | 19614 ft | 425 kts | 312° |
| 2026-04-26 14:17 | -13.00923 | 44.99603 | 20397 ft | 428 kts | 313° |
| 2026-04-26 14:17 | -12.98912 | 44.97335 | 21159 ft | 432 kts | 313° |
| 2026-04-26 14:18 | -12.96879 | 44.95046 | 21902 ft | 436 kts | 313° |
| 2026-04-26 14:18 | -12.94840 | 44.92741 | 22646 ft | 440 kts | 313° |
| 2026-04-26 14:18 | -12.92779 | 44.90402 | 23389 ft | 443 kts | 312° |
| 2026-04-26 14:18 | -12.90709 | 44.88045 | 24052 ft | 446 kts | 312° |
| 2026-04-26 14:19 | -12.88637 | 44.85679 | 24757 ft | 446 kts | 312° |
| 2026-04-26 14:19 | -12.86571 | 44.83316 | 25547 ft | 443 kts | 311° |
| 2026-04-26 14:19 | -12.84512 | 44.80961 | 26160 ft | 447 kts | 311° |
| 2026-04-26 14:19 | -12.82425 | 44.78572 | 26682 ft | 453 kts | 311° |
| 2026-04-26 14:20 | -12.80312 | 44.76155 | 27243 ft | 456 kts | 311° |
| 2026-04-26 14:20 | -12.78188 | 44.73726 | 27866 ft | 458 kts | 310° |
| 2026-04-26 14:20 | -12.76060 | 44.71294 | 28504 ft | 460 kts | 310° |
| 2026-04-26 14:20 | -12.73920 | 44.68849 | 29114 ft | 462 kts | 310° |
| 2026-04-26 14:21 | -12.71771 | 44.66395 | 29712 ft | 464 kts | 310° |
| 2026-04-26 14:21 | -12.69612 | 44.63929 | 30233 ft | 466 kts | 310° |
| 2026-04-26 14:21 | -12.67439 | 44.61450 | 30692 ft | 468 kts | 310° |
| 2026-04-26 14:21 | -12.65258 | 44.58961 | 31130 ft | 470 kts | 310° |
| 2026-04-26 14:22 | -12.63070 | 44.56465 | 31553 ft | 472 kts | 310° |
| 2026-04-26 14:22 | -12.60874 | 44.53961 | 32011 ft | 473 kts | 310° |
| 2026-04-26 14:22 | -12.58682 | 44.51462 | 32555 ft | 471 kts | 311° |
| 2026-04-26 14:22 | -12.56499 | 44.48975 | 33097 ft | 469 kts | 311° |
| 2026-04-26 14:23 | -12.54325 | 44.46496 | 33688 ft | 466 kts | 311° |
| 2026-04-26 14:23 | -12.52163 | 44.44032 | 34239 ft | 463 kts | 311° |
| 2026-04-26 14:23 | -12.50015 | 44.41586 | 34731 ft | 461 kts | 311° |
| 2026-04-26 14:23 | -12.47884 | 44.39158 | 35235 ft | 458 kts | 311° |
| 2026-04-26 14:24 | -12.45758 | 44.36738 | 35699 ft | 456 kts | 310° |
| 2026-04-26 14:24 | -12.43641 | 44.34328 | 36156 ft | 454 kts | 310° |
| 2026-04-26 14:24 | -12.41531 | 44.31928 | 36585 ft | 453 kts | 310° |
| 2026-04-26 14:24 | -12.39427 | 44.29534 | 37023 ft | 451 kts | 310° |
| 2026-04-26 14:25 | -12.37333 | 44.27153 | 37442 ft | 450 kts | 310° |
| 2026-04-26 14:25 | -12.35242 | 44.24776 | 37813 ft | 449 kts | 310° |
| 2026-04-26 14:25 | -12.33153 | 44.22400 | 37933 ft | 453 kts | 310° |
| 2026-04-26 14:26 | -12.28951 | 44.17626 | 37917 ft | 452 kts | 310° |
| 2026-04-26 14:26 | -12.24773 | 44.12884 | 37927 ft | 446 kts | 310° |
| 2026-04-26 14:27 | -12.20623 | 44.08174 | 37930 ft | 445 kts | 310° |
| 2026-04-26 14:27 | -12.16475 | 44.03468 | 37926 ft | 445 kts | 310° |
| 2026-04-26 14:28 | -12.12326 | 43.98764 | 37931 ft | 446 kts | 310° |
| 2026-04-26 14:28 | -12.08167 | 43.94051 | 37930 ft | 447 kts | 310° |
| 2026-04-26 14:29 | -12.03996 | 43.89327 | 37926 ft | 448 kts | 310° |
| 2026-04-26 14:29 | -11.99813 | 43.84592 | 37927 ft | 449 kts | 310° |
| 2026-04-26 14:30 | -11.95622 | 43.79849 | 37929 ft | 450 kts | 310° |
| 2026-04-26 14:30 | -11.91429 | 43.75107 | 37928 ft | 450 kts | 310° |
| 2026-04-26 14:31 | -11.87228 | 43.70359 | 37932 ft | 451 kts | 310° |
| 2026-04-26 14:31 | -11.83048 | 43.65637 | 37925 ft | 451 kts | 310° |
| 2026-04-26 14:32 | -11.78850 | 43.60897 | 37927 ft | 450 kts | 310° |
| 2026-04-26 14:32 | -11.74646 | 43.56151 | 37929 ft | 450 kts | 310° |
| 2026-04-26 14:33 | -11.70448 | 43.51415 | 37924 ft | 450 kts | 310° |
| 2026-04-26 14:33 | -11.66256 | 43.46689 | 37933 ft | 449 kts | 310° |
| 2026-04-26 14:34 | -11.62056 | 43.41955 | 37935 ft | 449 kts | 310° |
| 2026-04-26 14:34 | -11.57864 | 43.37233 | 37936 ft | 449 kts | 310° |
| 2026-04-26 14:35 | -11.53669 | 43.32510 | 37946 ft | 449 kts | 310° |
| 2026-04-26 14:35 | -11.49470 | 43.27784 | 37935 ft | 450 kts | 310° |
| 2026-04-26 14:36 | -11.45262 | 43.23051 | 37939 ft | 451 kts | 310° |
| 2026-04-26 14:36 | -11.41050 | 43.18315 | 37938 ft | 451 kts | 310° |
| 2026-04-26 14:37 | -11.36834 | 43.13578 | 37934 ft | 451 kts | 310° |
| 2026-04-26 14:37 | -11.32620 | 43.08845 | 37934 ft | 451 kts | 310° |
| 2026-04-26 14:38 | -11.28401 | 43.04108 | 37935 ft | 451 kts | 310° |
| 2026-04-26 14:38 | -11.24182 | 42.99374 | 37938 ft | 451 kts | 310° |
| 2026-04-26 14:39 | -11.19965 | 42.94645 | 37936 ft | 451 kts | 310° |
| 2026-04-26 14:39 | -11.15753 | 42.89923 | 37936 ft | 450 kts | 310° |
| 2026-04-26 14:40 | -11.11571 | 42.85237 | 37936 ft | 450 kts | 310° |
| 2026-04-26 14:40 | -11.07368 | 42.80530 | 37936 ft | 449 kts | 310° |
| 2026-04-26 14:41 | -11.03157 | 42.75817 | 37938 ft | 450 kts | 311° |
| 2026-04-26 14:41 | -10.98937 | 42.71096 | 37940 ft | 451 kts | 311° |
| 2026-04-26 14:42 | -10.94706 | 42.66365 | 37938 ft | 452 kts | 311° |
| 2026-04-26 14:42 | -10.90470 | 42.61632 | 37937 ft | 453 kts | 311° |
| 2026-04-26 14:43 | -10.86219 | 42.56885 | 37934 ft | 453 kts | 311° |
| 2026-04-26 14:43 | -10.81968 | 42.52144 | 37936 ft | 454 kts | 311° |
| 2026-04-26 14:44 | -10.77710 | 42.47392 | 37938 ft | 455 kts | 311° |
| 2026-04-26 14:44 | -10.73088 | 42.42986 | 37942 ft | 457 kts | 320° |
| 2026-04-26 14:45 | -10.67800 | 42.39392 | 37945 ft | 458 kts | 326° |
| 2026-04-26 14:45 | -10.62367 | 42.35999 | 37942 ft | 458 kts | 326° |
| 2026-04-26 14:46 | -10.56940 | 42.32607 | 37934 ft | 458 kts | 327° |
| 2026-04-26 14:46 | -10.51551 | 42.29222 | 37939 ft | 458 kts | 327° |
| 2026-04-26 14:47 | -10.46134 | 42.25812 | 37944 ft | 458 kts | 327° |
| 2026-04-26 14:47 | -10.40708 | 42.22395 | 37941 ft | 458 kts | 327° |
| 2026-04-26 14:48 | -10.35288 | 42.18983 | 37936 ft | 458 kts | 327° |
| 2026-04-26 14:48 | -10.29868 | 42.15573 | 37940 ft | 458 kts | 327° |
| 2026-04-26 14:49 | -10.24453 | 42.12168 | 37942 ft | 458 kts | 327° |
| 2026-04-26 14:49 | -10.19027 | 42.08758 | 37942 ft | 458 kts | 327° |
| 2026-04-26 14:50 | -10.13607 | 42.05352 | 37939 ft | 458 kts | 327° |
| 2026-04-26 14:50 | -10.08193 | 42.01952 | 37943 ft | 458 kts | 327° |
| 2026-04-26 14:51 | -10.02775 | 41.98551 | 37940 ft | 458 kts | 327° |
| 2026-04-26 14:51 | -9.97357 | 41.95151 | 37940 ft | 458 kts | 327° |
| 2026-04-26 14:52 | -9.91938 | 41.91751 | 37940 ft | 458 kts | 327° |
| 2026-04-26 14:52 | -9.87429 | 41.88924 | 37939 ft | 458 kts | 327° |
| 2026-04-26 14:53 | -9.82003 | 41.85523 | 37944 ft | 458 kts | 327° |
| 2026-04-26 14:53 | -9.76584 | 41.82128 | 37941 ft | 458 kts | 327° |
| 2026-04-26 14:54 | -9.71158 | 41.78729 | 37938 ft | 458 kts | 327° |
| 2026-04-26 14:54 | -9.65732 | 41.75332 | 37940 ft | 458 kts | 327° |
| 2026-04-26 14:55 | -9.60339 | 41.71956 | 37945 ft | 459 kts | 327° |
| 2026-04-26 14:55 | -9.54906 | 41.68557 | 37942 ft | 459 kts | 328° |
| 2026-04-26 14:56 | -9.49471 | 41.65158 | 37941 ft | 459 kts | 328° |
| 2026-04-26 14:56 | -9.44032 | 41.61758 | 37940 ft | 459 kts | 328° |
| 2026-04-26 14:57 | -9.38590 | 41.58358 | 37947 ft | 460 kts | 328° |
| 2026-04-26 14:57 | -9.33149 | 41.54959 | 37941 ft | 460 kts | 328° |
| 2026-04-26 14:58 | -9.27702 | 41.51557 | 37946 ft | 460 kts | 328° |
| 2026-04-26 14:58 | -9.22250 | 41.48154 | 37942 ft | 461 kts | 328° |
| 2026-04-26 14:59 | -9.16797 | 41.44751 | 37946 ft | 461 kts | 328° |
| 2026-04-26 14:59 | -9.11327 | 41.41340 | 37948 ft | 461 kts | 328° |
| 2026-04-26 15:00 | -9.05903 | 41.37957 | 37941 ft | 461 kts | 328° |
| 2026-04-26 15:00 | -9.00444 | 41.34555 | 37951 ft | 461 kts | 328° |
| 2026-04-26 15:01 | -8.94978 | 41.31150 | 37944 ft | 461 kts | 328° |
| 2026-04-26 15:01 | -8.89509 | 41.27744 | 37945 ft | 462 kts | 328° |
| 2026-04-26 15:02 | -8.84039 | 41.24338 | 37944 ft | 462 kts | 328° |
| 2026-04-26 15:02 | -8.78569 | 41.20933 | 37945 ft | 462 kts | 328° |
| 2026-04-26 15:03 | -8.73098 | 41.17530 | 37946 ft | 462 kts | 328° |
| 2026-04-26 15:03 | -8.67623 | 41.14125 | 37944 ft | 461 kts | 328° |
| 2026-04-26 15:04 | -8.62158 | 41.10728 | 37948 ft | 461 kts | 328° |
| 2026-04-26 15:04 | -8.56694 | 41.07332 | 37944 ft | 461 kts | 328° |
| 2026-04-26 15:05 | -8.51269 | 41.03962 | 37948 ft | 461 kts | 328° |
| 2026-04-26 15:05 | -8.45810 | 41.00572 | 37946 ft | 460 kts | 328° |
| 2026-04-26 15:06 | -8.40353 | 40.97186 | 37948 ft | 460 kts | 328° |
| 2026-04-26 15:06 | -8.34895 | 40.93800 | 37944 ft | 460 kts | 328° |
| 2026-04-26 15:07 | -8.26703 | 40.88724 | 37949 ft | 460 kts | 328° |
| 2026-04-26 15:07 | -8.21243 | 40.85342 | 37947 ft | 460 kts | 328° |
| 2026-04-26 15:08 | -8.15810 | 40.81925 | 37946 ft | 460 kts | 327° |
| 2026-04-26 15:08 | -8.10451 | 40.78397 | 37944 ft | 460 kts | 327° |
| 2026-04-26 15:09 | -8.05092 | 40.74871 | 37947 ft | 460 kts | 327° |
| 2026-04-26 15:09 | -7.99718 | 40.71362 | 37947 ft | 460 kts | 327° |
| 2026-04-26 15:10 | -7.95254 | 40.68457 | 37949 ft | 460 kts | 327° |
| 2026-04-26 15:10 | -7.88997 | 40.64388 | 37948 ft | 460 kts | 327° |
| 2026-04-26 15:11 | -7.83624 | 40.60890 | 37944 ft | 460 kts | 327° |
| 2026-04-26 15:11 | -7.78218 | 40.57434 | 37940 ft | 460 kts | 328° |
| 2026-04-26 15:12 | -7.72771 | 40.54036 | 37946 ft | 460 kts | 328° |
| 2026-04-26 15:12 | -7.67313 | 40.50639 | 37948 ft | 461 kts | 328° |
| 2026-04-26 15:13 | -7.61854 | 40.47233 | 37943 ft | 462 kts | 328° |
| 2026-04-26 15:13 | -7.56384 | 40.43815 | 37944 ft | 463 kts | 328° |
| 2026-04-26 15:14 | -7.50904 | 40.40392 | 37943 ft | 464 kts | 328° |
| 2026-04-26 15:14 | -7.45406 | 40.36959 | 37949 ft | 465 kts | 328° |
| 2026-04-26 15:15 | -7.39901 | 40.33522 | 37948 ft | 466 kts | 328° |
| 2026-04-26 15:15 | -7.34393 | 40.30085 | 37948 ft | 466 kts | 328° |
| 2026-04-26 15:16 | -7.28886 | 40.26650 | 37942 ft | 465 kts | 328° |
| 2026-04-26 15:16 | -7.23381 | 40.23217 | 37933 ft | 465 kts | 328° |
| 2026-04-26 15:17 | -7.18808 | 40.20366 | 37944 ft | 465 kts | 328° |
| 2026-04-26 15:17 | -7.12371 | 40.16354 | 37945 ft | 466 kts | 328° |
| 2026-04-26 15:18 | -7.06851 | 40.12916 | 37947 ft | 466 kts | 328° |
| 2026-04-26 15:18 | -7.01335 | 40.09481 | 37948 ft | 466 kts | 328° |
| 2026-04-26 15:19 | -6.95822 | 40.06048 | 37948 ft | 466 kts | 328° |
| 2026-04-26 15:19 | -6.90300 | 40.02614 | 37946 ft | 467 kts | 328° |
| 2026-04-26 15:20 | -6.84772 | 39.99179 | 37951 ft | 467 kts | 328° |
| 2026-04-26 15:20 | -6.79240 | 39.95738 | 37952 ft | 468 kts | 328° |
| 2026-04-26 15:21 | -6.73745 | 39.92307 | 37952 ft | 468 kts | 328° |
| 2026-04-26 15:21 | -6.68209 | 39.88847 | 37947 ft | 469 kts | 329° |
| 2026-04-26 15:22 | -6.62632 | 39.85371 | 37952 ft | 469 kts | 329° |
| 2026-04-26 15:22 | -6.57111 | 39.81935 | 37951 ft | 469 kts | 329° |
| 2026-04-26 15:23 | -6.51560 | 39.78482 | 37946 ft | 470 kts | 329° |
| 2026-04-26 15:23 | -6.45996 | 39.75021 | 37953 ft | 470 kts | 328° |
| 2026-04-26 15:24 | -6.40444 | 39.71523 | 37948 ft | 471 kts | 328° |
| 2026-04-26 15:24 | -6.34907 | 39.67981 | 37951 ft | 472 kts | 328° |
| 2026-04-26 15:25 | -6.30292 | 39.65044 | 37954 ft | 472 kts | 328° |
| 2026-04-26 15:25 | -6.23788 | 39.60936 | 37952 ft | 472 kts | 329° |
| 2026-04-26 15:26 | -6.18136 | 39.57561 | 37952 ft | 473 kts | 330° |
| 2026-04-26 15:26 | -6.12457 | 39.54211 | 37954 ft | 474 kts | 330° |
| 2026-04-26 15:27 | -6.06774 | 39.50838 | 37961 ft | 475 kts | 330° |
| 2026-04-26 15:27 | -6.01083 | 39.47450 | 37957 ft | 476 kts | 330° |
| 2026-04-26 15:28 | -5.95388 | 39.44062 | 37954 ft | 476 kts | 330° |
| 2026-04-26 15:28 | -5.89719 | 39.40692 | 37955 ft | 477 kts | 330° |
| 2026-04-26 15:29 | -5.84009 | 39.37294 | 37951 ft | 477 kts | 330° |
| 2026-04-26 15:30 | -5.72564 | 39.30519 | 37970 ft | 478 kts | 330° |
| 2026-04-26 15:30 | -5.66838 | 39.27137 | 37949 ft | 478 kts | 330° |
| 2026-04-26 15:31 | -5.58237 | 39.22058 | 37944 ft | 478 kts | 330° |
| 2026-04-26 15:32 | -5.51538 | 39.18103 | 37939 ft | 477 kts | 330° |
| 2026-04-26 15:32 | -5.43922 | 39.13607 | 37940 ft | 477 kts | 330° |
| 2026-04-26 15:33 | -5.38201 | 39.10232 | 37940 ft | 477 kts | 330° |
| 2026-04-26 15:33 | -5.32483 | 39.06858 | 37941 ft | 477 kts | 330° |
| 2026-04-26 15:34 | -5.26758 | 39.03482 | 37958 ft | 477 kts | 330° |
| 2026-04-26 15:34 | -5.21018 | 39.00098 | 37943 ft | 478 kts | 330° |
| 2026-04-26 15:35 | -5.15277 | 38.96714 | 37946 ft | 479 kts | 330° |
| 2026-04-26 15:35 | -5.09565 | 38.93348 | 37963 ft | 479 kts | 330° |
| 2026-04-26 15:36 | -5.03810 | 38.89959 | 37969 ft | 480 kts | 330° |
| 2026-04-26 15:36 | -4.98054 | 38.86569 | 37971 ft | 481 kts | 331° |
| 2026-04-26 15:37 | -4.92277 | 38.83173 | 37963 ft | 482 kts | 331° |
| 2026-04-26 15:37 | -4.86495 | 38.79768 | 37955 ft | 482 kts | 330° |
| 2026-04-26 15:38 | -4.80755 | 38.76274 | 37952 ft | 483 kts | 329° |
| 2026-04-26 15:38 | -4.75039 | 38.72729 | 37963 ft | 483 kts | 329° |
| 2026-04-26 15:39 | -4.69322 | 38.69199 | 37961 ft | 483 kts | 329° |
| 2026-04-26 15:39 | -4.65531 | 38.66869 | 37977 ft | 483 kts | 330° |
| 2026-04-26 15:40 | -4.58835 | 38.62762 | 37965 ft | 482 kts | 329° |
| 2026-04-26 15:40 | -4.52169 | 38.58674 | 37961 ft | 480 kts | 329° |
| 2026-04-26 15:41 | -4.47433 | 38.55770 | 37978 ft | 479 kts | 329° |
| 2026-04-26 15:41 | -4.40835 | 38.51724 | 37966 ft | 478 kts | 329° |
| 2026-04-26 15:42 | -4.35170 | 38.48251 | 37968 ft | 477 kts | 329° |
| 2026-04-26 15:42 | -4.30419 | 38.45340 | 37955 ft | 477 kts | 329° |
| 2026-04-26 15:43 | -4.24752 | 38.41869 | 37967 ft | 478 kts | 329° |
| 2026-04-26 15:44 | -4.16246 | 38.36660 | 37970 ft | 478 kts | 330° |
| 2026-04-26 15:44 | -4.07713 | 38.31441 | 37975 ft | 480 kts | 329° |
| 2026-04-26 15:45 | -3.99173 | 38.26192 | 37973 ft | 481 kts | 329° |
| 2026-04-26 15:46 | -3.90629 | 38.20914 | 37988 ft | 481 kts | 329° |
| 2026-04-26 15:46 | -3.85888 | 38.17994 | 37989 ft | 481 kts | 329° |
| 2026-04-26 15:47 | -3.76413 | 38.12164 | 37992 ft | 480 kts | 329° |
| 2026-04-26 15:48 | -3.70732 | 38.08671 | 37999 ft | 479 kts | 329° |
| 2026-04-26 15:48 | -3.65054 | 38.05184 | 38002 ft | 479 kts | 330° |
| 2026-04-26 15:49 | -3.59381 | 38.01696 | 37999 ft | 478 kts | 330° |
| 2026-04-26 15:49 | -3.53694 | 37.98233 | 38002 ft | 478 kts | 330° |
| 2026-04-26 15:50 | -3.48006 | 37.94790 | 38013 ft | 478 kts | 330° |
| 2026-04-26 15:50 | -3.42308 | 37.91342 | 38007 ft | 478 kts | 330° |
| 2026-04-26 15:51 | -3.36617 | 37.87896 | 38021 ft | 478 kts | 330° |
| 2026-04-26 15:51 | -3.30922 | 37.84447 | 38021 ft | 478 kts | 330° |
| 2026-04-26 15:52 | -3.25232 | 37.81001 | 38039 ft | 478 kts | 330° |
| 2026-04-26 15:52 | -3.19539 | 37.77555 | 38038 ft | 478 kts | 330° |
| 2026-04-26 15:53 | -3.13843 | 37.74108 | 38038 ft | 478 kts | 330° |
| 2026-04-26 15:53 | -3.08207 | 37.70696 | 37658 ft | 470 kts | 330° |
| 2026-04-26 15:53 | -3.05430 | 37.69016 | 37211 ft | 465 kts | 330° |
| 2026-04-26 15:54 | -3.02669 | 37.67346 | 36773 ft | 460 kts | 330° |
| 2026-04-26 15:54 | -2.99941 | 37.65696 | 36335 ft | 456 kts | 330° |
| 2026-04-26 15:54 | -2.97242 | 37.64064 | 35912 ft | 452 kts | 330° |
| 2026-04-26 15:54 | -2.94559 | 37.62444 | 35462 ft | 449 kts | 330° |
| 2026-04-26 15:55 | -2.91890 | 37.60840 | 35026 ft | 444 kts | 332° |
| 2026-04-26 15:55 | -2.89107 | 37.59534 | 34560 ft | 439 kts | 342° |
| 2026-04-26 15:55 | -2.86200 | 37.58647 | 34139 ft | 435 kts | 347° |
| 2026-04-26 15:55 | -2.83270 | 37.57937 | 33702 ft | 431 kts | 348° |
| 2026-04-26 15:56 | -2.80348 | 37.57290 | 33186 ft | 429 kts | 349° |
| 2026-04-26 15:56 | -2.77442 | 37.56669 | 32729 ft | 426 kts | 349° |
| 2026-04-26 15:56 | -2.74554 | 37.56056 | 32301 ft | 422 kts | 349° |
| 2026-04-26 15:56 | -2.71687 | 37.55453 | 31881 ft | 419 kts | 349° |
| 2026-04-26 15:57 | -2.68847 | 37.54857 | 31466 ft | 416 kts | 349° |
| 2026-04-26 15:57 | -2.66061 | 37.54264 | 31049 ft | 413 kts | 349° |
| 2026-04-26 15:57 | -2.63306 | 37.53451 | 30633 ft | 413 kts | 339° |
| 2026-04-26 15:57 | -2.61527 | 37.52659 | 30337 ft | 413 kts | 334° |
| 2026-04-26 15:58 | -2.58214 | 37.50803 | 29704 ft | 413 kts | 330° |
| 2026-04-26 15:58 | -2.55794 | 37.49272 | 29226 ft | 410 kts | 329° |
| 2026-04-26 15:58 | -2.53412 | 37.47713 | 28754 ft | 408 kts | 328° |
| 2026-04-26 15:58 | -2.51052 | 37.46160 | 28293 ft | 405 kts | 328° |
| 2026-04-26 15:59 | -2.48706 | 37.44624 | 27870 ft | 402 kts | 328° |
| 2026-04-26 15:59 | -2.46367 | 37.43105 | 27433 ft | 399 kts | 328° |
| 2026-04-26 15:59 | -2.44042 | 37.41605 | 27013 ft | 397 kts | 328° |
| 2026-04-26 15:59 | -2.41729 | 37.40120 | 26585 ft | 394 kts | 328° |
| 2026-04-26 16:00 | -2.39395 | 37.38626 | 26160 ft | 392 kts | 329° |
| 2026-04-26 16:00 | -2.37132 | 37.37180 | 25752 ft | 390 kts | 329° |
| 2026-04-26 16:00 | -2.34816 | 37.35701 | 25298 ft | 389 kts | 329° |
| 2026-04-26 16:00 | -2.32539 | 37.34247 | 24883 ft | 388 kts | 329° |
| 2026-04-26 16:01 | -2.30298 | 37.32816 | 24472 ft | 387 kts | 329° |
| 2026-04-26 16:01 | -2.28035 | 37.31371 | 24045 ft | 386 kts | 329° |
| 2026-04-26 16:01 | -2.25774 | 37.29928 | 23618 ft | 385 kts | 329° |
| 2026-04-26 16:01 | -2.23519 | 37.28488 | 23121 ft | 384 kts | 329° |
| 2026-04-26 16:02 | -2.21275 | 37.27055 | 22669 ft | 381 kts | 329° |
| 2026-04-26 16:02 | -2.19047 | 37.25632 | 22244 ft | 379 kts | 329° |
| 2026-04-26 16:02 | -2.16838 | 37.24221 | 21848 ft | 376 kts | 329° |
| 2026-04-26 16:02 | -2.15349 | 37.23271 | 21559 ft | 375 kts | 329° |
| 2026-04-26 16:03 | -2.12422 | 37.21402 | 21003 ft | 371 kts | 329° |
| 2026-04-26 16:03 | -2.10282 | 37.20035 | 20596 ft | 370 kts | 329° |
| 2026-04-26 16:03 | -2.08119 | 37.18654 | 20221 ft | 367 kts | 329° |
| 2026-04-26 16:03 | -2.05996 | 37.17299 | 20102 ft | 356 kts | 329° |
| 2026-04-26 16:04 | -2.03925 | 37.15976 | 20106 ft | 354 kts | 329° |
| 2026-04-26 16:04 | -2.01852 | 37.14652 | 19915 ft | 354 kts | 329° |
| 2026-04-26 16:04 | -1.99776 | 37.13327 | 19548 ft | 354 kts | 329° |
| 2026-04-26 16:04 | -1.97712 | 37.12010 | 19257 ft | 350 kts | 329° |
| 2026-04-26 16:05 | -1.95674 | 37.10709 | 18968 ft | 345 kts | 329° |
| 2026-04-26 16:05 | -1.93659 | 37.09422 | 18640 ft | 343 kts | 329° |
| 2026-04-26 16:05 | -1.91648 | 37.08140 | 18251 ft | 342 kts | 329° |
| 2026-04-26 16:05 | -1.89642 | 37.06860 | 17832 ft | 341 kts | 329° |
| 2026-04-26 16:06 | -1.87645 | 37.05586 | 17441 ft | 339 kts | 329° |
| 2026-04-26 16:06 | -1.85664 | 37.04322 | 17076 ft | 337 kts | 329° |
| 2026-04-26 16:06 | -1.83691 | 37.03063 | 16709 ft | 335 kts | 328° |
| 2026-04-26 16:06 | -1.81730 | 37.01812 | 16363 ft | 334 kts | 328° |
| 2026-04-26 16:07 | -1.79779 | 37.00568 | 16002 ft | 332 kts | 329° |
| 2026-04-26 16:07 | -1.77835 | 36.99327 | 15615 ft | 331 kts | 328° |
| 2026-04-26 16:07 | -1.75896 | 36.98091 | 15260 ft | 330 kts | 328° |
| 2026-04-26 16:07 | -1.73966 | 36.96860 | 14881 ft | 329 kts | 328° |
| 2026-04-26 16:08 | -1.72082 | 36.95658 | 14316 ft | 317 kts | 328° |
| 2026-04-26 16:08 | -1.70853 | 36.94873 | 13732 ft | 316 kts | 328° |
| 2026-04-26 16:08 | -1.68369 | 36.93289 | 12509 ft | 313 kts | 328° |
| 2026-04-26 16:08 | -1.66575 | 36.92146 | 11953 ft | 306 kts | 328° |
| 2026-04-26 16:09 | -1.64779 | 36.91001 | 11618 ft | 305 kts | 328° |
| 2026-04-26 16:09 | -1.62987 | 36.89859 | 11275 ft | 305 kts | 327° |
| 2026-04-26 16:09 | -1.61194 | 36.88718 | 10924 ft | 305 kts | 328° |
| 2026-04-26 16:09 | -1.59402 | 36.87577 | 10566 ft | 306 kts | 327° |
| 2026-04-26 16:10 | -1.57610 | 36.86436 | 10352 ft | 303 kts | 327° |
| 2026-04-26 16:10 | -1.55848 | 36.85314 | 10181 ft | 298 kts | 328° |
| 2026-04-26 16:10 | -1.54122 | 36.84211 | 9943 ft | 290 kts | 328° |
| 2026-04-26 16:10 | -1.52467 | 36.83152 | 9625 ft | 276 kts | 327° |
| 2026-04-26 16:11 | -1.50899 | 36.82127 | 9305 ft | 263 kts | 325° |
| 2026-04-26 16:11 | -1.49445 | 36.81077 | 8983 ft | 252 kts | 323° |
| 2026-04-26 16:11 | -1.48059 | 36.80064 | 8655 ft | 242 kts | 324° |
| 2026-04-26 16:11 | -1.46705 | 36.79078 | 8380 ft | 240 kts | 324° |
| 2026-04-26 16:12 | -1.45330 | 36.78182 | 8052 ft | 232 kts | 341° |
| 2026-04-26 16:12 | -1.43739 | 36.78044 | 8037 ft | 235 kts | 13° |
| 2026-04-26 16:12 | -1.41251 | 36.79918 | 7998 ft | 223 kts | 54° |
| 2026-04-26 16:13 | -1.40342 | 36.81181 | 7790 ft | 224 kts | 56° |
| 2026-04-26 16:13 | -1.39469 | 36.82402 | 7568 ft | 210 kts | 55° |
| 2026-04-26 16:13 | -1.38636 | 36.83552 | 7281 ft | 198 kts | 54° |
| 2026-04-26 16:13 | -1.37854 | 36.84627 | 7041 ft | 185 kts | 54° |
| 2026-04-26 16:14 | -1.37114 | 36.85646 | 6832 ft | 176 kts | 54° |
| 2026-04-26 16:14 | -1.36427 | 36.86591 | 6618 ft | 160 kts | 54° |
| 2026-04-26 16:14 | -1.35197 | 36.88268 | 6246 ft | 152 kts | 53° |
| 2026-04-26 16:15 | -1.34579 | 36.89113 | 6003 ft | 152 kts | 54° |
| 2026-04-26 16:15 | -1.33967 | 36.89960 | 5807 ft | 148 kts | 54° |
| 2026-04-26 16:15 | -1.33367 | 36.90793 | 5580 ft | 147 kts | 55° |
| 2026-04-26 16:16 | -1.32195 | 36.92406 | 5320 ft | 130 kts | 54° |
| 2026-04-26 16:16 | -1.31773 | 36.92986 | 5307 ft | 76 kts | 54° |
| 2026-04-26 16:16 | -1.31582 | 36.93245 | 5303 ft | 19 kts | 55° |
| 2026-04-26 16:16 | -1.31582 | 36.93337 | 5305 ft | 8 kts | 129° |
| 2026-04-26 16:17 | -1.31631 | 36.93376 | 5306 ft | 11 kts | 145° |
| 2026-04-26 16:17 | -1.31700 | 36.93424 | 5305 ft | 13 kts | 144° |
| 2026-04-26 16:17 | -1.31763 | 36.93470 | 5308 ft | 5 kts | 144° |
| 2026-04-26 16:17 | -1.31804 | 36.93478 | 5309 ft | 7 kts | 196° |
| 2026-04-26 16:18 | -1.31851 | 36.93436 | 5308 ft | 11 kts | 230° |
| 2026-04-26 16:18 | -1.31968 | 36.93276 | 5312 ft | 17 kts | 234° |
| 2026-04-26 16:19 | -1.32119 | 36.93069 | 5316 ft | 19 kts | 233° |
| 2026-04-26 16:19 | -1.32197 | 36.92963 | 5318 ft | 19 kts | 234° |
| 2026-04-26 16:19 | -1.32309 | 36.92810 | 5322 ft | 16 kts | 233° |
| 2026-04-26 16:20 | -1.32395 | 36.92692 | 5334 ft | 16 kts | 234° |
| 2026-04-26 16:20 | -1.32512 | 36.92533 | 5333 ft | 13 kts | 234° |
| 2026-04-26 16:20 | -1.32564 | 36.92462 | 5334 ft | 13 kts | 233° |
| 2026-04-26 16:21 | -1.32612 | 36.92396 | 5334 ft | 11 kts | 234° |
| 2026-04-26 16:21 | -1.32647 | 36.92352 | 5335 ft | 7 kts | 222° |
| 2026-04-26 16:21 | -1.32690 | 36.92352 | 5331 ft | 7 kts | 147° |
| 2026-04-26 16:21 | -1.32729 | 36.92381 | 5332 ft | 7 kts | 143° |
| 2026-04-26 16:22 | -1.32774 | 36.92394 | 5332 ft | 7 kts | 194° |
| 2026-04-26 16:22 | -1.32800 | 36.92362 | 5331 ft | 4 kts | 238° |
| 2026-04-26 16:22 | -1.32816 | 36.92339 | 5332 ft | 4 kts | 233° |
| 2026-04-26 16:22 | -1.32834 | 36.92318 | 5332 ft | 4 kts | 228° |
| 2026-04-26 16:23 | -1.32854 | 36.92296 | 5335 ft | 4 kts | 227° |
| 2026-04-26 16:23 | -1.32875 | 36.92277 | 5335 ft | 4 kts | 219° |
| 2026-04-26 16:23 | -1.32899 | 36.92261 | 5335 ft | 4 kts | 211° |
| 2026-04-26 16:23 | -1.32928 | 36.92245 | 5332 ft | 5 kts | 207° |
| 2026-04-26 16:24 | -1.32942 | 36.92238 | 5334 ft | 1 kts | 205° |
| 2026-04-26 16:24 | -1.32949 | 36.92234 | 5334 ft | 1 kts | 214° |
| 2026-04-26 16:24 | -1.32953 | 36.92226 | 5335 ft | 1 kts | 241° |
| 2026-04-26 16:24 | -1.32954 | 36.92217 | 5329 ft | 2 kts | 270° |
| 2026-04-26 16:25 | -1.32952 | 36.92203 | 5334 ft | 2 kts | 281° |
| 2026-04-26 16:25 | -1.32947 | 36.92184 | 5332 ft | 3 kts | 284° |
| 2026-04-26 16:25 | -1.32943 | 36.92169 | 5332 ft | 1 kts | 284° |
| 2026-04-26 16:25 | -1.32943 | 36.92167 | 5332 ft | 0 kts | 284° |